sensor_id;sensor_type;location;lat;lon;timestamp;P1;P2;P0
77413;PMS7003;66486;49.992;19.164;2023-12-07T00:01:28;77.00;63.50;33.50
77413;PMS7003;66486;49.992;19.164;2023-12-07T00:03:54;60.75;49.50;30.00
77413;PMS7003;66486;49.992;19.164;2023-12-07T00:06:23;74.75;57.25;32.75
77413;PMS7003;66486;49.992;19.164;2023-12-07T00:08:50;69.75;56.75;28.00
77413;PMS7003;66486;49.992;19.164;2023-12-07T00:11:16;75.25;62.50;36.00
77413;PMS7003;66486;49.992;19.164;2023-12-07T00:13:43;64.50;51.75;28.25
77413;PMS7003;66486;49.992;19.164;2023-12-07T00:16:14;75.50;58.50;35.75
77413;PMS7003;66486;49.992;19.164;2023-12-07T00:18:41;76.25;59.50;35.00
77413;PMS7003;66486;49.992;19.164;2023-12-07T00:21:12;74.50;60.00;33.50
77413;PMS7003;66486;49.992;19.164;2023-12-07T00:23:39;70.75;54.50;29.75
77413;PMS7003;66486;49.992;19.164;2023-12-07T00:26:06;70.50;56.25;32.50
77413;PMS7003;66486;49.992;19.164;2023-12-07T00:28:37;63.50;43.00;19.75
77413;PMS7003;66486;49.992;19.164;2023-12-07T00:31:03;81.50;59.25;32.50
77413;PMS7003;66486;49.992;19.164;2023-12-07T00:33:33;77.00;61.75;34.25
77413;PMS7003;66486;49.992;19.164;2023-12-07T00:36:02;74.50;60.50;34.50
77413;PMS7003;66486;49.992;19.164;2023-12-07T00:38:29;68.75;55.25;28.75
77413;PMS7003;66486;49.992;19.164;2023-12-07T00:40:57;69.25;52.75;30.00
77413;PMS7003;66486;49.992;19.164;2023-12-07T00:43:27;81.00;59.50;34.00
77413;PMS7003;66486;49.992;19.164;2023-12-07T00:45:53;68.75;54.75;30.25
77413;PMS7003;66486;49.992;19.164;2023-12-07T00:48:20;74.75;59.25;32.25
77413;PMS7003;66486;49.992;19.164;2023-12-07T00:50:46;80.75;61.00;34.50
77413;PMS7003;66486;49.992;19.164;2023-12-07T00:53:13;72.75;55.75;33.00
77413;PMS7003;66486;49.992;19.164;2023-12-07T00:55:40;55.50;48.75;25.00
77413;PMS7003;66486;49.992;19.164;2023-12-07T00:58:09;58.00;49.50;27.00
77413;PMS7003;66486;49.992;19.164;2023-12-07T01:00:39;42.25;41.75;19.50
77413;PMS7003;66486;49.992;19.164;2023-12-07T01:03:06;67.25;52.25;30.00
77413;PMS7003;66486;49.992;19.164;2023-12-07T01:05:33;66.00;54.25;36.00
77413;PMS7003;66486;49.992;19.164;2023-12-07T01:08:02;62.75;51.50;30.25
77413;PMS7003;66486;49.992;19.164;2023-12-07T01:10:28;53.75;45.25;24.75
77413;PMS7003;66486;49.992;19.164;2023-12-07T01:12:58;36.25;32.75;22.75
77413;PMS7003;66486;49.992;19.164;2023-12-07T01:15:24;68.50;48.50;29.00
77413;PMS7003;66486;49.992;19.164;2023-12-07T01:17:54;59.75;53.00;30.00
77413;PMS7003;66486;49.992;19.164;2023-12-07T01:20:26;60.75;52.75;30.50
77413;PMS7003;66486;49.992;19.164;2023-12-07T01:22:56;49.00;44.50;19.00
77413;PMS7003;66486;49.992;19.164;2023-12-07T01:25:22;64.00;53.00;27.25
77413;PMS7003;66486;49.992;19.164;2023-12-07T01:27:49;62.25;52.00;31.25
77413;PMS7003;66486;49.992;19.164;2023-12-07T01:30:25;42.75;39.75;24.25
77413;PMS7003;66486;49.992;19.164;2023-12-07T01:32:55;66.50;52.50;30.00
77413;PMS7003;66486;49.992;19.164;2023-12-07T01:35:21;63.50;53.00;30.00
77413;PMS7003;66486;49.992;19.164;2023-12-07T01:37:51;68.00;55.50;30.25
77413;PMS7003;66486;49.992;19.164;2023-12-07T01:40:29;60.25;49.75;27.75
77413;PMS7003;66486;49.992;19.164;2023-12-07T01:42:55;57.50;50.75;24.50
77413;PMS7003;66486;49.992;19.164;2023-12-07T01:45:27;53.75;47.75;27.50
77413;PMS7003;66486;49.992;19.164;2023-12-07T01:47:57;59.50;53.25;32.50
77413;PMS7003;66486;49.992;19.164;2023-12-07T01:50:25;68.00;50.00;29.25
77413;PMS7003;66486;49.992;19.164;2023-12-07T01:53:00;52.50;42.75;10.50
77413;PMS7003;66486;49.992;19.164;2023-12-07T01:55:30;72.75;58.00;34.25
77413;PMS7003;66486;49.992;19.164;2023-12-07T01:58:01;42.75;41.50;22.75
77413;PMS7003;66486;49.992;19.164;2023-12-07T02:00:32;54.75;47.50;26.25
77413;PMS7003;66486;49.992;19.164;2023-12-07T02:03:03;65.75;52.00;27.25
77413;PMS7003;66486;49.992;19.164;2023-12-07T02:05:31;57.50;48.25;26.50
77413;PMS7003;66486;49.992;19.164;2023-12-07T02:07:59;50.50;44.50;26.50
77413;PMS7003;66486;49.992;19.164;2023-12-07T02:10:25;56.50;49.00;31.75
77413;PMS7003;66486;49.992;19.164;2023-12-07T02:12:59;60.50;52.00;27.75
77413;PMS7003;66486;49.992;19.164;2023-12-07T02:15:27;52.50;48.50;30.00
77413;PMS7003;66486;49.992;19.164;2023-12-07T02:23:08;71.75;58.25;33.00
77413;PMS7003;66486;49.992;19.164;2023-12-07T02:25:48;74.75;60.50;35.00
77413;PMS7003;66486;49.992;19.164;2023-12-07T02:28:27;51.50;46.00;26.00
77413;PMS7003;66486;49.992;19.164;2023-12-07T02:30:56;72.00;57.50;33.00
77413;PMS7003;66486;49.992;19.164;2023-12-07T02:33:23;56.75;48.50;29.50
77413;PMS7003;66486;49.992;19.164;2023-12-07T02:35:50;66.50;54.25;32.50
77413;PMS7003;66486;49.992;19.164;2023-12-07T02:38:21;61.50;51.00;29.50
77413;PMS7003;66486;49.992;19.164;2023-12-07T02:40:55;57.25;48.50;28.25
77413;PMS7003;66486;49.992;19.164;2023-12-07T02:43:26;67.00;57.00;33.00
77413;PMS7003;66486;49.992;19.164;2023-12-07T02:45:57;57.75;49.75;28.25
77413;PMS7003;66486;49.992;19.164;2023-12-07T02:48:27;58.50;49.50;28.50
77413;PMS7003;66486;49.992;19.164;2023-12-07T02:50:57;72.00;57.75;34.50
77413;PMS7003;66486;49.992;19.164;2023-12-07T02:53:27;69.00;53.00;33.00
77413;PMS7003;66486;49.992;19.164;2023-12-07T02:55:53;51.25;43.25;16.50
77413;PMS7003;66486;49.992;19.164;2023-12-07T02:58:22;68.25;53.00;28.50
77413;PMS7003;66486;49.992;19.164;2023-12-07T03:00:51;73.75;57.75;31.50
77413;PMS7003;66486;49.992;19.164;2023-12-07T03:03:24;53.50;48.50;29.00
77413;PMS7003;66486;49.992;19.164;2023-12-07T03:05:50;58.75;52.50;30.25
77413;PMS7003;66486;49.992;19.164;2023-12-07T03:08:17;64.75;47.75;23.25
77413;PMS7003;66486;49.992;19.164;2023-12-07T03:10:49;70.75;55.75;32.00
77413;PMS7003;66486;49.992;19.164;2023-12-07T03:13:19;48.75;45.00;25.50
77413;PMS7003;66486;49.992;19.164;2023-12-07T03:15:48;68.00;58.50;33.00
77413;PMS7003;66486;49.992;19.164;2023-12-07T03:18:15;61.00;47.75;26.50
77413;PMS7003;66486;49.992;19.164;2023-12-07T03:20:44;61.50;48.75;32.00
77413;PMS7003;66486;49.992;19.164;2023-12-07T03:23:12;68.00;54.00;31.00
77413;PMS7003;66486;49.992;19.164;2023-12-07T03:25:38;71.50;51.75;27.00
77413;PMS7003;66486;49.992;19.164;2023-12-07T03:28:06;74.75;58.75;31.50
77413;PMS7003;66486;49.992;19.164;2023-12-07T03:30:37;60.50;49.00;28.25
77413;PMS7003;66486;49.992;19.164;2023-12-07T03:33:07;48.50;42.50;26.75
77413;PMS7003;66486;49.992;19.164;2023-12-07T03:35:44;46.00;40.50;23.25
77413;PMS7003;66486;49.992;19.164;2023-12-07T03:38:17;57.75;43.75;17.00
77413;PMS7003;66486;49.992;19.164;2023-12-07T03:40:43;56.00;50.25;31.25
77413;PMS7003;66486;49.992;19.164;2023-12-07T03:43:13;51.75;44.75;24.25
77413;PMS7003;66486;49.992;19.164;2023-12-07T03:45:50;63.50;52.50;30.00
77413;PMS7003;66486;49.992;19.164;2023-12-07T03:48:21;70.50;54.00;32.00
77413;PMS7003;66486;49.992;19.164;2023-12-07T03:50:47;53.25;48.00;29.50
77413;PMS7003;66486;49.992;19.164;2023-12-07T03:53:23;69.75;52.00;31.00
77413;PMS7003;66486;49.992;19.164;2023-12-07T03:55:49;49.50;46.00;30.00
77413;PMS7003;66486;49.992;19.164;2023-12-07T03:58:16;60.75;51.75;28.25
77413;PMS7003;66486;49.992;19.164;2023-12-07T04:00:42;41.75;37.50;22.00
77413;PMS7003;66486;49.992;19.164;2023-12-07T04:03:10;66.50;53.50;29.50
77413;PMS7003;66486;49.992;19.164;2023-12-07T04:05:36;57.00;50.25;25.75
77413;PMS7003;66486;49.992;19.164;2023-12-07T04:08:04;55.25;46.00;30.00
77413;PMS7003;66486;49.992;19.164;2023-12-07T04:10:36;68.00;53.00;28.75
77413;PMS7003;66486;49.992;19.164;2023-12-07T04:13:06;63.75;53.75;31.00
77413;PMS7003;66486;49.992;19.164;2023-12-07T04:15:32;54.75;46.75;27.75
77413;PMS7003;66486;49.992;19.164;2023-12-07T04:17:59;66.75;53.25;28.00
77413;PMS7003;66486;49.992;19.164;2023-12-07T04:20:28;83.00;60.25;31.00
77413;PMS7003;66486;49.992;19.164;2023-12-07T04:22:55;84.00;64.50;34.00
77413;PMS7003;66486;49.992;19.164;2023-12-07T04:25:24;62.00;50.50;30.00
77413;PMS7003;66486;49.992;19.164;2023-12-07T04:27:54;83.25;65.50;34.00
77413;PMS7003;66486;49.992;19.164;2023-12-07T04:30:20;83.25;65.50;34.00
77413;PMS7003;66486;49.992;19.164;2023-12-07T04:35:36;79.25;60.00;26.50
77413;PMS7003;66486;49.992;19.164;2023-12-07T04:38:15;82.00;63.75;33.50
77413;PMS7003;66486;49.992;19.164;2023-12-07T04:40:45;67.00;56.50;33.00
77413;PMS7003;66486;49.992;19.164;2023-12-07T04:43:15;70.50;51.75;26.00
77413;PMS7003;66486;49.992;19.164;2023-12-07T04:45:44;36.25;36.25;16.25
77413;PMS7003;66486;49.992;19.164;2023-12-07T04:48:20;66.25;52.00;25.00
77413;PMS7003;66486;49.992;19.164;2023-12-07T04:51:00;46.25;42.25;25.50
77413;PMS7003;66486;49.992;19.164;2023-12-07T04:53:36;64.25;52.25;31.00
77413;PMS7003;66486;49.992;19.164;2023-12-07T04:56:03;63.50;45.00;19.00
77413;PMS7003;66486;49.992;19.164;2023-12-07T04:58:33;69.00;53.50;27.00
77413;PMS7003;66486;49.992;19.164;2023-12-07T05:01:14;72.25;56.50;31.75
77413;PMS7003;66486;49.992;19.164;2023-12-07T05:03:44;60.75;52.50;32.75
77413;PMS7003;66486;49.992;19.164;2023-12-07T05:06:11;56.00;47.00;23.00
77413;PMS7003;66486;49.992;19.164;2023-12-07T05:08:39;71.25;55.75;32.50
77413;PMS7003;66486;49.992;19.164;2023-12-07T05:11:09;52.50;45.50;32.50
77413;PMS7003;66486;49.992;19.164;2023-12-07T05:13:46;67.50;56.75;32.50
77413;PMS7003;66486;49.992;19.164;2023-12-07T05:16:23;69.50;57.25;32.00
77413;PMS7003;66486;49.992;19.164;2023-12-07T05:18:54;73.75;61.75;33.75
77413;PMS7003;66486;49.992;19.164;2023-12-07T05:21:23;59.00;50.00;36.00
77413;PMS7003;66486;49.992;19.164;2023-12-07T05:23:53;62.50;54.25;33.00
77413;PMS7003;66486;49.992;19.164;2023-12-07T05:26:22;73.00;60.25;33.50
77413;PMS7003;66486;49.992;19.164;2023-12-07T05:28:52;82.25;64.50;37.25
77413;PMS7003;66486;49.992;19.164;2023-12-07T05:31:18;72.00;56.00;33.00
77413;PMS7003;66486;49.992;19.164;2023-12-07T05:33:44;74.25;60.25;35.50
77413;PMS7003;66486;49.992;19.164;2023-12-07T05:36:10;45.00;29.00;6.75
77413;PMS7003;66486;49.992;19.164;2023-12-07T05:38:40;60.00;51.50;22.50
77413;PMS7003;66486;49.992;19.164;2023-12-07T05:41:09;74.00;59.25;33.50
77413;PMS7003;66486;49.992;19.164;2023-12-07T05:43:36;64.50;50.00;31.75
77413;PMS7003;66486;49.992;19.164;2023-12-07T05:46:02;74.00;59.00;33.50
77413;PMS7003;66486;49.992;19.164;2023-12-07T05:48:37;67.50;54.75;29.50
77413;PMS7003;66486;49.992;19.164;2023-12-07T05:51:11;76.75;60.25;35.00
77413;PMS7003;66486;49.992;19.164;2023-12-07T05:53:43;67.00;56.75;33.75
77413;PMS7003;66486;49.992;19.164;2023-12-07T05:56:19;73.25;57.50;34.50
77413;PMS7003;66486;49.992;19.164;2023-12-07T05:58:46;77.00;62.00;35.50
77413;PMS7003;66486;49.992;19.164;2023-12-07T06:01:16;78.50;63.50;36.25
77413;PMS7003;66486;49.992;19.164;2023-12-07T06:03:48;61.25;52.00;33.50
77413;PMS7003;66486;49.992;19.164;2023-12-07T06:06:15;68.50;53.50;30.00
77413;PMS7003;66486;49.992;19.164;2023-12-07T06:08:50;78.50;60.75;35.50
77413;PMS7003;66486;49.992;19.164;2023-12-07T06:11:17;76.25;63.25;34.00
77413;PMS7003;66486;49.992;19.164;2023-12-07T06:13:46;83.00;64.50;36.25
77413;PMS7003;66486;49.992;19.164;2023-12-07T06:16:12;46.50;40.50;0.00
77413;PMS7003;66486;49.992;19.164;2023-12-07T06:18:45;75.25;62.00;33.50
77413;PMS7003;66486;49.992;19.164;2023-12-07T06:21:16;77.00;62.50;36.25
77413;PMS7003;66486;49.992;19.164;2023-12-07T06:23:45;75.25;62.75;34.75
77413;PMS7003;66486;49.992;19.164;2023-12-07T06:26:12;66.25;55.75;36.75
77413;PMS7003;66486;49.992;19.164;2023-12-07T06:28:41;72.50;61.25;37.00
77413;PMS7003;66486;49.992;19.164;2023-12-07T06:31:10;82.50;65.00;37.00
77413;PMS7003;66486;49.992;19.164;2023-12-07T06:33:41;58.50;52.75;32.00
77413;PMS7003;66486;49.992;19.164;2023-12-07T06:36:17;79.25;64.50;36.00
77413;PMS7003;66486;49.992;19.164;2023-12-07T06:38:53;61.75;46.00;24.00
77413;PMS7003;66486;49.992;19.164;2023-12-07T06:41:26;91.00;69.75;39.25
77413;PMS7003;66486;49.992;19.164;2023-12-07T06:43:56;78.00;62.25;36.50
77413;PMS7003;66486;49.992;19.164;2023-12-07T06:46:28;77.00;62.00;34.25
77413;PMS7003;66486;49.992;19.164;2023-12-07T06:48:56;76.50;59.50;30.75
77413;PMS7003;66486;49.992;19.164;2023-12-07T06:51:31;72.25;56.25;20.00
77413;PMS7003;66486;49.992;19.164;2023-12-07T06:54:01;67.75;58.00;35.75
77413;PMS7003;66486;49.992;19.164;2023-12-07T06:56:28;61.75;54.00;33.25
77413;PMS7003;66486;49.992;19.164;2023-12-07T06:58:58;71.25;59.00;31.25
77413;PMS7003;66486;49.992;19.164;2023-12-07T07:01:24;65.25;50.25;29.75
77413;PMS7003;66486;49.992;19.164;2023-12-07T07:03:54;74.75;59.50;32.50
77413;PMS7003;66486;49.992;19.164;2023-12-07T07:09:18;78.00;62.75;37.75
77413;PMS7003;66486;49.992;19.164;2023-12-07T07:11:48;91.75;70.75;37.75
77413;PMS7003;66486;49.992;19.164;2023-12-07T07:14:27;78.75;65.50;37.00
77413;PMS7003;66486;49.992;19.164;2023-12-07T07:16:54;78.25;62.25;34.50
77413;PMS7003;66486;49.992;19.164;2023-12-07T07:19:23;87.25;65.75;38.50
77413;PMS7003;66486;49.992;19.164;2023-12-07T07:21:49;68.00;48.25;23.50
77413;PMS7003;66486;49.992;19.164;2023-12-07T07:24:16;82.50;66.50;36.25
77413;PMS7003;66486;49.992;19.164;2023-12-07T07:26:54;84.00;66.00;36.25
77413;PMS7003;66486;49.992;19.164;2023-12-07T07:29:35;91.50;70.25;41.00
77413;PMS7003;66486;49.992;19.164;2023-12-07T07:32:17;81.75;62.50;37.25
77413;PMS7003;66486;49.992;19.164;2023-12-07T07:34:44;88.25;69.00;40.00
77413;PMS7003;66486;49.992;19.164;2023-12-07T07:37:17;89.50;68.50;40.75
77413;PMS7003;66486;49.992;19.164;2023-12-07T07:39:45;83.00;66.25;41.00
77413;PMS7003;66486;49.992;19.164;2023-12-07T07:42:15;82.00;64.00;40.75
77413;PMS7003;66486;49.992;19.164;2023-12-07T07:45:00;91.50;66.25;36.50
77413;PMS7003;66486;49.992;19.164;2023-12-07T07:47:30;89.75;71.50;41.00
77413;PMS7003;66486;49.992;19.164;2023-12-07T07:49:58;95.50;74.50;42.25
77413;PMS7003;66486;49.992;19.164;2023-12-07T07:52:31;94.25;72.25;41.50
77413;PMS7003;66486;49.992;19.164;2023-12-07T07:55:07;94.00;71.50;40.50
77413;PMS7003;66486;49.992;19.164;2023-12-07T07:57:50;95.00;75.75;44.75
77413;PMS7003;66486;49.992;19.164;2023-12-07T08:00:26;86.75;70.00;42.00
77413;PMS7003;66486;49.992;19.164;2023-12-07T08:03:19;85.50;66.50;42.00
77413;PMS7003;66486;49.992;19.164;2023-12-07T08:05:45;104.00;76.00;42.00
77413;PMS7003;66486;49.992;19.164;2023-12-07T08:08:12;100.25;77.25;46.00
77413;PMS7003;66486;49.992;19.164;2023-12-07T08:10:44;89.00;71.25;42.00
77413;PMS7003;66486;49.992;19.164;2023-12-07T08:13:10;93.75;72.50;43.00
77413;PMS7003;66486;49.992;19.164;2023-12-07T08:15:39;102.00;76.00;44.75
77413;PMS7003;66486;49.992;19.164;2023-12-07T08:18:06;95.50;75.00;42.25
77413;PMS7003;66486;49.992;19.164;2023-12-07T08:23:55;93.00;72.50;42.50
77413;PMS7003;66486;49.992;19.164;2023-12-07T08:26:21;88.25;71.00;42.75
77413;PMS7003;66486;49.992;19.164;2023-12-07T08:28:53;96.00;75.00;43.00
77413;PMS7003;66486;49.992;19.164;2023-12-07T08:31:20;94.50;73.00;40.00
77413;PMS7003;66486;49.992;19.164;2023-12-07T08:33:48;91.75;70.00;40.50
77413;PMS7003;66486;49.992;19.164;2023-12-07T08:36:18;99.00;75.00;40.75
77413;PMS7003;66486;49.992;19.164;2023-12-07T08:38:44;92.75;73.00;40.50
77413;PMS7003;66486;49.992;19.164;2023-12-07T08:41:14;95.25;75.25;43.25
77413;PMS7003;66486;49.992;19.164;2023-12-07T08:43:41;105.00;81.75;47.75
77413;PMS7003;66486;49.992;19.164;2023-12-07T08:46:15;103.00;77.25;46.00
77413;PMS7003;66486;49.992;19.164;2023-12-07T08:48:45;102.75;82.00;45.00
77413;PMS7003;66486;49.992;19.164;2023-12-07T08:51:12;104.75;78.50;46.00
77413;PMS7003;66486;49.992;19.164;2023-12-07T08:53:39;97.00;75.00;42.75
77413;PMS7003;66486;49.992;19.164;2023-12-07T08:56:05;111.00;82.75;46.00
77413;PMS7003;66486;49.992;19.164;2023-12-07T08:58:38;97.50;74.75;45.50
77413;PMS7003;66486;49.992;19.164;2023-12-07T09:01:05;92.50;73.25;43.25
77413;PMS7003;66486;49.992;19.164;2023-12-07T09:03:31;83.25;67.75;38.50
77413;PMS7003;66486;49.992;19.164;2023-12-07T09:05:59;101.75;77.50;44.50
77413;PMS7003;66486;49.992;19.164;2023-12-07T09:08:34;93.00;71.50;40.00
77413;PMS7003;66486;49.992;19.164;2023-12-07T09:11:01;99.75;77.50;47.00
77413;PMS7003;66486;49.992;19.164;2023-12-07T09:13:32;92.50;69.50;44.50
77413;PMS7003;66486;49.992;19.164;2023-12-07T09:15:59;93.25;72.75;42.00
77413;PMS7003;66486;49.992;19.164;2023-12-07T09:18:33;104.50;79.00;45.00
77413;PMS7003;66486;49.992;19.164;2023-12-07T09:21:03;110.25;86.25;48.75
77413;PMS7003;66486;49.992;19.164;2023-12-07T09:23:31;106.75;79.25;45.75
77413;PMS7003;66486;49.992;19.164;2023-12-07T09:26:00;101.00;78.00;46.00
77413;PMS7003;66486;49.992;19.164;2023-12-07T09:28:29;109.75;83.75;45.75
77413;PMS7003;66486;49.992;19.164;2023-12-07T09:30:59;100.50;78.50;45.00
77413;PMS7003;66486;49.992;19.164;2023-12-07T09:33:46;97.25;73.50;42.00
77413;PMS7003;66486;49.992;19.164;2023-12-07T09:36:19;109.00;79.75;45.25
77413;PMS7003;66486;49.992;19.164;2023-12-07T09:38:52;110.00;79.25;46.00
77413;PMS7003;66486;49.992;19.164;2023-12-07T09:41:24;131.00;105.50;51.25
77413;PMS7003;66486;49.992;19.164;2023-12-07T09:43:56;104.00;84.75;49.50
77413;PMS7003;66486;49.992;19.164;2023-12-07T09:46:22;108.75;90.25;48.25
77413;PMS7003;66486;49.992;19.164;2023-12-07T09:48:49;98.50;78.00;45.75
77413;PMS7003;66486;49.992;19.164;2023-12-07T09:51:17;126.00;97.50;51.00
77413;PMS7003;66486;49.992;19.164;2023-12-07T09:53:44;105.00;78.25;42.00
77413;PMS7003;66486;49.992;19.164;2023-12-07T09:56:15;107.50;81.75;48.00
77413;PMS7003;66486;49.992;19.164;2023-12-07T09:58:42;118.00;93.00;48.75
77413;PMS7003;66486;49.992;19.164;2023-12-07T10:01:17;108.75;87.00;48.50
77413;PMS7003;66486;49.992;19.164;2023-12-07T10:03:43;108.50;89.25;50.00
77413;PMS7003;66486;49.992;19.164;2023-12-07T10:06:29;108.25;89.50;49.50
77413;PMS7003;66486;49.992;19.164;2023-12-07T10:09:16;109.50;86.50;50.50
77413;PMS7003;66486;49.992;19.164;2023-12-07T10:12:01;106.75;81.50;46.25
77413;PMS7003;66486;49.992;19.164;2023-12-07T10:14:40;112.00;90.50;50.00
77413;PMS7003;66486;49.992;19.164;2023-12-07T10:17:07;108.00;86.50;49.00
77413;PMS7003;66486;49.992;19.164;2023-12-07T10:19:40;108.50;83.50;49.50
77413;PMS7003;66486;49.992;19.164;2023-12-07T10:22:13;116.25;86.00;47.00
77413;PMS7003;66486;49.992;19.164;2023-12-07T10:24:43;98.75;77.50;42.00
77413;PMS7003;66486;49.992;19.164;2023-12-07T10:27:10;110.25;85.00;48.75
77413;PMS7003;66486;49.992;19.164;2023-12-07T10:29:45;111.75;84.75;46.00
77413;PMS7003;66486;49.992;19.164;2023-12-07T10:32:11;115.50;102.75;49.00
77413;PMS7003;66486;49.992;19.164;2023-12-07T10:34:38;97.75;75.25;46.00
77413;PMS7003;66486;49.992;19.164;2023-12-07T10:37:04;107.25;79.50;46.50
77413;PMS7003;66486;49.992;19.164;2023-12-07T10:39:32;112.75;89.50;51.50
77413;PMS7003;66486;49.992;19.164;2023-12-07T10:41:59;112.75;92.25;50.00
77413;PMS7003;66486;49.992;19.164;2023-12-07T10:44:36;110.75;88.00;49.50
77413;PMS7003;66486;49.992;19.164;2023-12-07T10:47:09;106.75;81.00;48.00
77413;PMS7003;66486;49.992;19.164;2023-12-07T10:49:43;105.50;80.75;48.75
77413;PMS7003;66486;49.992;19.164;2023-12-07T10:52:12;100.25;80.25;49.00
77413;PMS7003;66486;49.992;19.164;2023-12-07T10:57:26;106.50;79.00;44.25
77413;PMS7003;66486;49.992;19.164;2023-12-07T10:59:53;99.75;79.00;47.50
77413;PMS7003;66486;49.992;19.164;2023-12-07T11:02:22;114.75;96.75;50.00
77413;PMS7003;66486;49.992;19.164;2023-12-07T11:04:50;110.75;87.00;46.50
77413;PMS7003;66486;49.992;19.164;2023-12-07T11:07:20;110.75;91.00;48.25
77413;PMS7003;66486;49.992;19.164;2023-12-07T11:09:51;109.50;79.25;46.50
77413;PMS7003;66486;49.992;19.164;2023-12-07T11:12:32;109.50;80.25;47.00
77413;PMS7003;66486;49.992;19.164;2023-12-07T11:15:20;106.75;76.50;42.00
77413;PMS7003;66486;49.992;19.164;2023-12-07T11:17:56;118.25;103.00;54.00
77413;PMS7003;66486;49.992;19.164;2023-12-07T11:20:46;117.75;97.25;50.00
77413;PMS7003;66486;49.992;19.164;2023-12-07T11:23:18;104.00;78.25;46.00
77413;PMS7003;66486;49.992;19.164;2023-12-07T11:25:46;105.50;80.00;45.75
77413;PMS7003;66486;49.992;19.164;2023-12-07T11:28:14;103.00;78.50;45.00
77413;PMS7003;66486;49.992;19.164;2023-12-07T11:30:42;107.50;78.50;46.00
77413;PMS7003;66486;49.992;19.164;2023-12-07T11:33:10;102.00;75.00;40.75
77413;PMS7003;66486;49.992;19.164;2023-12-07T11:38:26;107.25;85.75;48.75
77413;PMS7003;66486;49.992;19.164;2023-12-07T11:40:55;108.75;89.25;48.00
77413;PMS7003;66486;49.992;19.164;2023-12-07T11:46:06;103.00;78.50;45.50
77413;PMS7003;66486;49.992;19.164;2023-12-07T11:48:36;112.50;92.00;48.00
77413;PMS7003;66486;49.992;19.164;2023-12-07T11:51:11;114.00;87.25;48.25
77413;PMS7003;66486;49.992;19.164;2023-12-07T11:53:41;109.50;86.75;49.50
77413;PMS7003;66486;49.992;19.164;2023-12-07T11:56:08;90.50;74.00;41.25
77413;PMS7003;66486;49.992;19.164;2023-12-07T11:58:44;113.00;87.00;48.00
77413;PMS7003;66486;49.992;19.164;2023-12-07T12:01:19;109.00;84.00;51.25
77413;PMS7003;66486;49.992;19.164;2023-12-07T12:03:46;113.75;86.25;51.00
77413;PMS7003;66486;49.992;19.164;2023-12-07T12:06:13;117.25;97.00;50.75
77413;PMS7003;66486;49.992;19.164;2023-12-07T12:08:40;109.25;87.25;47.50
77413;PMS7003;66486;49.992;19.164;2023-12-07T12:11:08;110.75;88.00;51.00
77413;PMS7003;66486;49.992;19.164;2023-12-07T12:13:38;113.25;93.75;51.25
77413;PMS7003;66486;49.992;19.164;2023-12-07T12:16:08;111.25;88.75;49.00
77413;PMS7003;66486;49.992;19.164;2023-12-07T12:18:34;111.50;93.25;50.00
77413;PMS7003;66486;49.992;19.164;2023-12-07T12:21:03;114.50;96.50;48.50
77413;PMS7003;66486;49.992;19.164;2023-12-07T12:23:33;110.00;81.75;48.00
77413;PMS7003;66486;49.992;19.164;2023-12-07T12:25:59;108.75;88.00;51.00
77413;PMS7003;66486;49.992;19.164;2023-12-07T12:28:29;119.75;96.00;51.00
77413;PMS7003;66486;49.992;19.164;2023-12-07T12:31:10;112.50;94.25;51.50
77413;PMS7003;66486;49.992;19.164;2023-12-07T12:33:37;111.50;83.25;44.50
77413;PMS7003;66486;49.992;19.164;2023-12-07T12:36:04;114.50;88.50;47.50
77413;PMS7003;66486;49.992;19.164;2023-12-07T12:38:32;113.50;93.75;51.00
77413;PMS7003;66486;49.992;19.164;2023-12-07T12:41:02;107.75;84.50;45.75
77413;PMS7003;66486;49.992;19.164;2023-12-07T12:43:30;105.25;82.50;44.00
77413;PMS7003;66486;49.992;19.164;2023-12-07T12:45:57;107.75;86.75;50.50
77413;PMS7003;66486;49.992;19.164;2023-12-07T12:48:24;110.75;90.00;49.00
77413;PMS7003;66486;49.992;19.164;2023-12-07T12:50:50;120.50;104.00;53.50
77413;PMS7003;66486;49.992;19.164;2023-12-07T12:53:26;100.00;76.00;42.00
77413;PMS7003;66486;49.992;19.164;2023-12-07T12:55:53;107.75;87.25;49.25
77413;PMS7003;66486;49.992;19.164;2023-12-07T12:58:20;109.25;88.75;48.75
77413;PMS7003;66486;49.992;19.164;2023-12-07T13:00:48;110.00;91.25;51.00
77413;PMS7003;66486;49.992;19.164;2023-12-07T13:03:14;111.00;84.00;48.25
77413;PMS7003;66486;49.992;19.164;2023-12-07T13:05:41;114.50;96.75;51.00
77413;PMS7003;66486;49.992;19.164;2023-12-07T13:08:07;93.25;73.50;39.25
77413;PMS7003;66486;49.992;19.164;2023-12-07T13:10:36;104.75;75.75;44.75
77413;PMS7003;66486;49.992;19.164;2023-12-07T13:13:02;107.00;84.50;45.75
77413;PMS7003;66486;49.992;19.164;2023-12-07T13:15:29;94.75;66.75;37.00
77413;PMS7003;66486;49.992;19.164;2023-12-07T13:17:56;112.75;86.50;48.75
77413;PMS7003;66486;49.992;19.164;2023-12-07T13:20:22;113.50;87.00;45.75
77413;PMS7003;66486;49.992;19.164;2023-12-07T13:22:48;113.25;88.00;46.00
77413;PMS7003;66486;49.992;19.164;2023-12-07T13:25:15;114.00;85.75;47.00
77413;PMS7003;66486;49.992;19.164;2023-12-07T13:27:43;108.00;86.25;51.00
77413;PMS7003;66486;49.992;19.164;2023-12-07T13:30:10;119.25;92.00;49.00
77413;PMS7003;66486;49.992;19.164;2023-12-07T13:32:36;106.25;82.50;50.00
77413;PMS7003;66486;49.992;19.164;2023-12-07T13:35:06;116.25;99.50;50.75
77413;PMS7003;66486;49.992;19.164;2023-12-07T13:37:36;108.50;83.00;42.00
77413;PMS7003;66486;49.992;19.164;2023-12-07T13:40:03;119.00;96.00;50.00
77413;PMS7003;66486;49.992;19.164;2023-12-07T13:42:30;107.25;81.50;42.75
77413;PMS7003;66486;49.992;19.164;2023-12-07T13:44:58;92.25;71.50;42.25
77413;PMS7003;66486;49.992;19.164;2023-12-07T13:47:25;114.25;87.75;45.00
77413;PMS7003;66486;49.992;19.164;2023-12-07T13:49:58;109.25;86.25;48.75
77413;PMS7003;66486;49.992;19.164;2023-12-07T13:52:25;105.50;75.25;42.00
77413;PMS7003;66486;49.992;19.164;2023-12-07T13:54:51;104.50;79.25;46.50
77413;PMS7003;66486;49.992;19.164;2023-12-07T13:57:18;99.75;74.50;41.50
77413;PMS7003;66486;49.992;19.164;2023-12-07T13:59:55;112.75;78.00;42.50
77413;PMS7003;66486;49.992;19.164;2023-12-07T14:02:22;105.00;81.25;45.50
77413;PMS7003;66486;49.992;19.164;2023-12-07T14:04:49;81.25;66.50;34.25
77413;PMS7003;66486;49.992;19.164;2023-12-07T14:07:21;96.75;74.00;44.50